Gloria Glens, Ohio
Current Conditions -  °F | °C
As of 5:56 PM on Friday 28 Nov 2014 (Local Time) from KBJJ Reporting Station
Broken Clouds Broken Clouds  
Wind Chill: 18°   Ceiling: 10000
Heat Index: 26°   Visibility: 8mi
Dew Point: 20°   Wind: 7mph
Humidity: 78%   Direction: 200°SSW
Pressure: 30.21"   Gusts: NA
Location:  41.0673°N, 81.9012°W
Report Text: KBJJ 282256Z AUTO 20006KT 8SM SCT040 BKN100 M03/M07 A3021 RMK AO2 SNB10E50 SLP245 P0000 T10331067 TSNO
Loading
Personal Weather Stations






























Interactive Weather Map New forecast layout! Learn more

10-Day Weather Forecast

Advertisements
Track Severe Weather on mobile